Lunamar — 5BNV2 — position and weather

sailwx.info

Track history (hours):
 
Tides and Currents Weather Stations Pressure Air Temp Water Temp Dewpoint Dewpoint Depression Visibility Wind Speed Wind Dir Waves Ship Positions

Lunamar

Last reported at 2014-Jul-30 09:33 UTC. Time now 2014-Jul-30 15:10 UTC.
Position N 56°17' E 020°27'.

Length 76 m; draft 5.3 m.

Type: Cargo ship. MMSI: 212762000.

Date/timePositionNaut miles runAvg speedWind from/ knotsBaromVisibWave heightAir tempDewpointWater temp
2014-Jul-30 09:33N 56°17' E 020°27'10 9.8
2014-Jul-30 08:33N 56°27' E 020°22'1110.1
2014-Jul-30 07:30N 56°37' E 020°18'1010.1
2014-Jul-30 06:33N 56°46' E 020°13'60 9.9
2014-Jul-30 00:28N 57°45' E 019°43'12 9.9
2014-Jul-29 23:18N 57°55' E 019°36'7 9.7
2014-Jul-29 22:33N 58°02' E 019°31'23 1.3
2014-Jul-29 04:22N 57°57' E 018°48'94 1.9
2014-Jul-27 03:09N 59°22' E 020°05'9 9.5
2014-Jul-27 02:11N 59°31' E 020°03'  
Track history (hours):
 
Tides and Currents Weather Stations Pressure Air Temp Water Temp Dewpoint Dewpoint Depression Visibility Wind Speed Wind Dir Waves Ship Positions

Lunamar

Last reported at 2014-Jul-30 09:33 UTC. Time now 2014-Jul-30 15:10 UTC.
Position N 56°17' E 020°27'.

Length 76 m; draft 5.3 m.

Type: Cargo ship. MMSI: 212762000.

Date/timePositionNaut miles runAvg speedWind from/ knotsBaromVisibWave heightAir tempDewpointWater temp
2014-Jul-30 09:33N 56°17' E 020°27'10 9.8
2014-Jul-30 08:33N 56°27' E 020°22'1110.1
2014-Jul-30 07:30N 56°37' E 020°18'1010.1
2014-Jul-30 06:33N 56°46' E 020°13'60 9.9
2014-Jul-30 00:28N 57°45' E 019°43'12 9.9
2014-Jul-29 23:18N 57°55' E 019°36'7 9.7
2014-Jul-29 22:33N 58°02' E 019°31'23 1.3
2014-Jul-29 04:22N 57°57' E 018°48'94 1.9
2014-Jul-27 03:09N 59°22' E 020°05'9 9.5
2014-Jul-27 02:11N 59°31' E 020°03'  

Dump ship's entire track history